Time;durP1;ratioP1;P1;durP2;ratioP2;P2;SDS_P1;SDS_P2;PMS_P1;PMS_P2;Temp;Humidity;BMP_temperature;BMP_pressure;BME280_temperature;BME280_humidity;BME280_pressure;Samples;Min_cycle;Max_cycle;Signal;HPM_P1;HPM_P2
2022/04/09 00:00:09;;;;;;;15.98;14.77;;;4.10;99.90;;;;;;5032477;28;20624;-65
2022/04/09 00:02:38;;;;;;;15.93;14.57;;;4.10;99.90;;;;;;5031851;28;20215;-65
2022/04/09 00:05:09;;;;;;;17.58;16.08;;;4.10;99.90;;;;;;5032156;28;20201;-64
2022/04/09 00:07:37;;;;;;;18.15;16.23;;;4.20;99.90;;;;;;5032560;28;20231;-64
2022/04/09 00:10:08;;;;;;;17.90;16.52;;;4.20;99.90;;;;;;5031999;28;20764;-64
2022/04/09 00:12:36;;;;;;;18.30;16.77;;;4.20;99.90;;;;;;5031580;28;20192;-65
2022/04/09 00:15:04;;;;;;;17.70;16.15;;;4.20;99.90;;;;;;5031801;28;20204;-64
2022/04/09 00:17:37;;;;;;;18.98;17.23;;;4.20;99.90;;;;;;5031815;28;20200;-64
2022/04/09 00:20:06;;;;;;;18.33;16.63;;;4.20;99.90;;;;;;5032316;28;20217;-64
2022/04/09 00:22:34;;;;;;;17.80;16.33;;;4.20;99.90;;;;;;5031362;28;20201;-64
2022/04/09 00:25:04;;;;;;;18.75;17.02;;;4.20;99.90;;;;;;5031816;28;20209;-64
2022/04/09 00:27:33;;;;;;;16.85;15.63;;;4.20;99.90;;;;;;5031992;28;20212;-64
2022/04/09 00:30:01;;;;;;;16.50;15.15;;;4.20;99.90;;;;;;5031426;28;20624;-64
2022/04/09 00:32:29;;;;;;;17.45;16.00;;;4.30;99.90;;;;;;5031534;28;20211;-64
2022/04/09 00:34:57;;;;;;;18.67;16.70;;;4.30;99.90;;;;;;5031796;28;20233;-64
2022/04/09 00:37:25;;;;;;;18.67;16.98;;;4.20;99.90;;;;;;5031833;28;20247;-64
2022/04/09 00:39:53;;;;;;;19.25;17.50;;;4.30;99.90;;;;;;5031561;28;20238;-64
2022/04/09 00:42:21;;;;;;;17.17;15.70;;;4.30;99.90;;;;;;5030990;28;20208;-65
2022/04/09 00:44:50;;;;;;;17.77;16.13;;;4.30;99.90;;;;;;5031486;28;20591;-64
2022/04/09 00:47:18;;;;;;;18.70;17.00;;;4.30;99.90;;;;;;5030860;28;20228;-64
2022/04/09 00:49:46;;;;;;;17.65;15.88;;;4.20;99.90;;;;;;5031200;28;20261;-64
2022/04/09 00:52:17;;;;;;;18.25;16.63;;;4.30;99.90;;;;;;5030844;28;20300;-64
2022/04/09 00:54:47;;;;;;;18.27;16.60;;;4.30;99.90;;;;;;5030031;28;20201;-64
2022/04/09 00:57:16;;;;;;;17.38;15.88;;;4.30;99.90;;;;;;5031408;28;20231;-64
2022/04/09 00:59:46;;;;;;;16.85;15.38;;;4.30;99.90;;;;;;5031111;28;20561;-64
2022/04/09 01:02:16;;;;;;;17.88;16.20;;;4.30;99.90;;;;;;5031058;28;20246;-65
2022/04/09 01:04:44;;;;;;;17.85;15.07;;;4.30;99.90;;;;;;5031302;28;20251;-64
2022/04/09 01:07:13;;;;;;;20.23;16.48;;;4.30;99.90;;;;;;5031148;28;20217;-64
2022/04/09 01:09:41;;;;;;;17.90;16.27;;;4.30;99.90;;;;;;5031031;28;20221;-64
2022/04/09 01:12:10;;;;;;;17.70;16.00;;;4.30;99.90;;;;;;5030527;28;20713;-64
2022/04/09 01:14:38;;;;;;;16.90;15.15;;;4.30;99.90;;;;;;5031222;28;20235;-64
2022/04/09 01:17:06;;;;;;;16.20;14.50;;;4.30;99.90;;;;;;5031137;28;20192;-64
2022/04/09 01:19:35;;;;;;;17.35;15.55;;;4.40;99.90;;;;;;5030838;28;20219;-64
2022/04/09 01:22:04;;;;;;;16.85;15.05;;;4.30;99.90;;;;;;5030342;28;20262;-64
2022/04/09 01:24:32;;;;;;;18.52;15.07;;;4.30;99.90;;;;;;5031052;28;20258;-64
2022/04/09 01:27:00;;;;;;;15.68;14.07;;;4.30;99.90;;;;;;5031022;28;20231;-64
2022/04/09 01:29:28;;;;;;;14.25;13.13;;;4.30;99.90;;;;;;5030760;28;20235;-64
2022/04/09 01:31:56;;;;;;;16.05;14.48;;;4.40;99.90;;;;;;5030569;28;20719;-63
2022/04/09 01:34:24;;;;;;;18.65;14.63;;;4.30;99.90;;;;;;5030939;28;20280;-64
2022/04/09 01:36:52;;;;;;;14.77;13.38;;;4.30;99.90;;;;;;5031090;28;20200;-63
2022/04/09 01:39:21;;;;;;;15.55;14.15;;;4.30;99.90;;;;;;5030843;28;20235;-64
2022/04/09 01:41:49;;;;;;;15.82;14.32;;;4.30;99.90;;;;;;5031009;28;20247;-64
2022/04/09 01:44:17;;;;;;;16.42;14.98;;;4.30;99.90;;;;;;5030322;28;20247;-64
2022/04/09 01:46:45;;;;;;;15.60;14.15;;;4.30;99.90;;;;;;5030758;28;20200;-64
2022/04/09 01:49:14;;;;;;;13.38;12.23;;;4.30;99.90;;;;;;5030632;28;20631;-64
2022/04/09 01:51:41;;;;;;;15.52;13.95;;;4.20;99.90;;;;;;5030781;28;20239;-64
2022/04/09 01:54:09;;;;;;;14.00;12.90;;;4.30;99.90;;;;;;5028694;28;20228;-64
2022/04/09 01:56:40;;;;;;;13.80;12.65;;;4.30;99.90;;;;;;5030677;28;20263;-64
2022/04/09 01:59:08;;;;;;;12.05;10.88;;;4.30;99.90;;;;;;5033033;28;20239;-64
2022/04/09 02:01:36;;;;;;;14.38;12.35;;;4.30;99.90;;;;;;5034703;28;20646;-64
2022/04/09 02:04:04;;;;;;;14.57;12.43;;;4.20;99.90;;;;;;5034126;28;20198;-64
2022/04/09 02:06:33;;;;;;;12.30;11.00;;;4.20;99.90;;;;;;5034513;28;20250;-64
2022/04/09 02:09:01;;;;;;;13.38;11.38;;;4.20;99.90;;;;;;5034324;28;20193;-64
2022/04/09 02:11:29;;;;;;;13.23;11.90;;;4.20;99.90;;;;;;5034355;28;20784;-64
2022/04/09 02:13:58;;;;;;;13.65;11.88;;;4.20;99.90;;;;;;5033790;28;20286;-64
2022/04/09 02:16:27;;;;;;;12.95;11.60;;;4.10;99.90;;;;;;5034479;28;20280;-64
2022/04/09 02:18:55;;;;;;;13.40;10.45;;;4.10;99.90;;;;;;5034235;28;20197;-64
2022/04/09 02:21:23;;;;;;;11.15;10.00;;;4.20;99.90;;;;;;5034286;28;20300;-64
2022/04/09 02:23:51;;;;;;;12.88;10.77;;;4.30;99.90;;;;;;5033541;28;20197;-64
2022/04/09 02:26:19;;;;;;;11.70;10.70;;;4.20;99.90;;;;;;5034346;28;20254;-64
2022/04/09 02:28:49;;;;;;;12.35;10.45;;;4.10;99.90;;;;;;5034270;28;20228;-64
2022/04/09 02:31:18;;;;;;;12.15;10.55;;;4.10;99.90;;;;;;5033759;28;20267;-64
2022/04/09 02:33:46;;;;;;;11.57;10.38;;;4.10;99.90;;;;;;5033402;28;20275;-64
2022/04/09 02:36:15;;;;;;;11.57;10.38;;;4.10;99.90;;;;;;5033781;28;20247;-64
2022/04/09 02:38:43;;;;;;;12.77;10.93;;;4.10;99.90;;;;;;5033951;28;20853;-64
2022/04/09 02:41:11;;;;;;;12.95;10.05;;;4.10;99.90;;;;;;5033897;28;20212;-64
2022/04/09 02:43:40;;;;;;;11.13;10.13;;;4.10;99.90;;;;;;5033279;28;20224;-64
2022/04/09 02:46:08;;;;;;;11.02;9.95;;;4.10;99.90;;;;;;5034253;28;20599;-64
2022/04/09 02:48:37;;;;;;;11.32;10.18;;;4.10;99.90;;;;;;5034236;28;20229;-65
2022/04/09 02:51:05;;;;;;;12.35;9.95;;;4.10;99.90;;;;;;5033515;28;20755;-64
2022/04/09 02:53:33;;;;;;;17.38;10.73;;;4.10;99.90;;;;;;5031568;28;20255;-64
2022/04/09 02:56:01;;;;;;;12.52;11.15;;;4.10;99.90;;;;;;5033678;28;20220;-64
2022/04/09 02:58:29;;;;;;;11.32;10.15;;;4.10;99.90;;;;;;5033636;28;20578;-65
2022/04/09 03:00:57;;;;;;;14.43;10.23;;;4.10;99.90;;;;;;5033422;28;20255;-64
2022/04/09 03:03:24;;;;;;;13.38;10.98;;;4.10;99.90;;;;;;5032902;28;20292;-64
2022/04/09 03:05:54;;;;;;;12.35;11.20;;;4.10;99.90;;;;;;5033549;28;20536;-65
2022/04/09 03:08:21;;;;;;;11.02;10.00;;;4.10;99.90;;;;;;5033548;28;20239;-64
2022/04/09 03:10:49;;;;;;;12.82;10.10;;;4.10;99.90;;;;;;5032346;28;20768;-64
2022/04/09 03:13:17;;;;;;;13.00;10.32;;;4.00;99.90;;;;;;5032666;28;20246;-64
2022/04/09 03:15:45;;;;;;;13.75;10.15;;;4.00;99.90;;;;;;5033336;28;20545;-64
2022/04/09 03:18:13;;;;;;;11.70;9.43;;;4.00;99.90;;;;;;5033380;28;20192;-64
2022/04/09 03:20:41;;;;;;;12.00;10.90;;;4.10;99.90;;;;;;5033046;28;20212;-64
2022/04/09 03:23:10;;;;;;;11.65;10.02;;;4.00;99.90;;;;;;5032486;28;20652;-65
2022/04/09 03:25:38;;;;;;;13.65;10.40;;;4.00;99.90;;;;;;5033027;28;20284;-64
2022/04/09 03:28:06;;;;;;;12.38;9.13;;;4.00;99.90;;;;;;5033074;28;20457;-64
2022/04/09 03:30:34;;;;;;;9.07;8.27;;;4.10;99.90;;;;;;5033944;28;20225;-64
2022/04/09 03:33:02;;;;;;;11.80;10.05;;;4.00;99.90;;;;;;5032387;28;20231;-64
2022/04/09 03:35:30;;;;;;;12.23;9.05;;;4.10;99.90;;;;;;5032895;28;20212;-64
2022/04/09 03:37:58;;;;;;;15.70;10.02;;;4.00;99.90;;;;;;5032969;28;20217;-64
2022/04/09 03:40:27;;;;;;;11.80;8.70;;;4.00;99.90;;;;;;5032485;28;20299;-64
2022/04/09 03:42:55;;;;;;;15.07;9.10;;;4.10;99.90;;;;;;5032283;28;20263;-64
2022/04/09 03:45:22;;;;;;;12.50;9.13;;;4.10;99.90;;;;;;5032723;28;20279;-64
2022/04/09 03:47:50;;;;;;;11.35;9.25;;;4.10;99.90;;;;;;5032845;28;20201;-64
2022/04/09 03:50:18;;;;;;;9.93;8.13;;;4.10;99.90;;;;;;5032455;28;20216;-64
2022/04/09 03:52:46;;;;;;;14.50;8.65;;;4.10;99.90;;;;;;5030306;28;20197;-64
2022/04/09 03:55:14;;;;;;;10.55;7.90;;;4.00;99.90;;;;;;5032584;28;20227;-64
2022/04/09 03:57:43;;;;;;;10.82;7.20;;;4.00;99.90;;;;;;5032427;28;20193;-64
2022/04/09 04:00:14;;;;;;;15.63;7.55;;;4.00;99.90;;;;;;5032220;28;20221;-65
2022/04/09 04:02:42;;;;;;;15.00;7.65;;;4.00;99.90;;;;;;5031789;28;20251;-64
2022/04/09 04:05:10;;;;;;;12.68;7.30;;;4.00;99.90;;;;;;5032338;28;20205;-64
2022/04/09 04:07:43;;;;;;;13.85;6.50;;;4.00;99.90;;;;;;5032389;28;20200;-64
2022/04/09 04:10:12;;;;;;;13.38;8.07;;;4.00;99.90;;;;;;5032397;28;20247;-64
2022/04/09 04:12:41;;;;;;;10.82;5.90;;;4.00;99.90;;;;;;5031511;28;20252;-64
2022/04/09 04:15:13;;;;;;;8.98;6.30;;;4.00;99.90;;;;;;5032185;28;20199;-64
2022/04/09 04:17:41;;;;;;;11.88;7.47;;;4.10;99.90;;;;;;5032208;28;20596;-64
2022/04/09 04:20:11;;;;;;;19.73;8.45;;;4.00;99.90;;;;;;5032104;28;20709;-64
2022/04/09 04:22:39;;;;;;;14.30;7.65;;;4.10;99.90;;;;;;5031454;28;20223;-64
2022/04/09 04:25:09;;;;;;;13.45;7.38;;;4.10;99.90;;;;;;5032019;28;20231;-64
2022/04/09 04:27:41;;;;;;;14.60;7.18;;;4.10;99.90;;;;;;5032180;28;20205;-64
2022/04/09 04:30:11;;;;;;;11.65;6.00;;;4.10;99.90;;;;;;5031345;28;20287;-64
2022/04/09 04:32:40;;;;;;;11.57;7.28;;;4.00;99.90;;;;;;5031190;28;20283;-64
2022/04/09 04:35:09;;;;;;;12.20;6.80;;;4.00;99.90;;;;;;5032224;28;20232;-64
2022/04/09 04:37:37;;;;;;;12.70;7.25;;;4.00;99.90;;;;;;5032025;28;20259;-64
2022/04/09 04:40:07;;;;;;;12.80;6.47;;;4.00;99.90;;;;;;5031350;28;20735;-64
2022/04/09 04:42:34;;;;;;;11.82;5.93;;;4.10;99.90;;;;;;5030926;28;20615;-64
2022/04/09 04:45:03;;;;;;;16.25;6.63;;;4.10;99.90;;;;;;5031697;28;20205;-64
2022/04/09 04:47:32;;;;;;;12.65;5.05;;;4.00;99.90;;;;;;5031654;28;20205;-64
2022/04/09 04:50:04;;;;;;;12.05;5.65;;;4.00;99.90;;;;;;5031501;28;20224;-64
2022/04/09 04:52:32;;;;;;;13.23;5.53;;;4.00;99.90;;;;;;5029373;28;20759;-64
2022/04/09 04:55:00;;;;;;;14.48;5.65;;;4.00;99.90;;;;;;5031333;28;20200;-64
2022/04/09 04:57:28;;;;;;;10.90;4.80;;;4.00;99.90;;;;;;5031571;28;20224;-64
2022/04/09 04:59:58;;;;;;;16.25;6.28;;;4.00;99.90;;;;;;5031243;28;20279;-64
2022/04/09 05:02:28;;;;;;;11.60;5.13;;;4.00;99.90;;;;;;5030776;28;20201;-64
2022/04/09 05:04:58;;;;;;;18.85;6.25;;;4.00;99.90;;;;;;5032016;28;20771;-63
2022/04/09 05:07:38;;;;;;;10.07;5.00;;;4.00;99.90;;;;;;5031260;28;20224;-64
2022/04/09 05:10:07;;;;;;;18.33;5.60;;;4.00;99.90;;;;;;5031236;28;20238;-64
2022/04/09 05:12:35;;;;;;;13.98;5.15;;;4.00;99.90;;;;;;5030536;28;20311;-64
2022/04/09 05:15:03;;;;;;;8.75;4.00;;;4.00;99.90;;;;;;5031328;28;20204;-64
2022/04/09 05:17:32;;;;;;;18.55;5.22;;;4.00;99.90;;;;;;5031055;28;20231;-64
2022/04/09 05:20:03;;;;;;;9.20;4.55;;;4.00;99.90;;;;;;5031042;28;20196;-64
2022/04/09 05:22:32;;;;;;;9.00;4.15;;;4.00;99.90;;;;;;5030541;28;20744;-65
2022/04/09 05:25:00;;;;;;;9.13;4.20;;;4.00;99.90;;;;;;5031192;28;20238;-64
2022/04/09 05:27:28;;;;;;;9.75;4.03;;;4.00;99.90;;;;;;5031006;28;20254;-64
2022/04/09 05:29:56;;;;;;;11.10;3.95;;;4.00;99.90;;;;;;5030535;28;20204;-64
2022/04/09 05:32:25;;;;;;;14.18;4.05;;;4.00;99.90;;;;;;5030130;28;20286;-64
2022/04/09 05:34:53;;;;;;;6.75;3.38;;;4.00;99.90;;;;;;5030736;28;20280;-64
2022/04/09 05:37:22;;;;;;;11.65;3.80;;;4.00;99.90;;;;;;5030674;28;20200;-64
2022/04/09 05:39:50;;;;;;;14.15;3.75;;;4.10;99.90;;;;;;5031035;28;20224;-64
2022/04/09 05:42:17;;;;;;;9.00;3.42;;;4.10;99.90;;;;;;5030642;28;20288;-63
2022/04/09 05:44:45;;;;;;;10.65;3.75;;;4.10;99.90;;;;;;5030543;28;20240;-65
2022/04/09 05:47:13;;;;;;;8.73;3.63;;;4.10;99.90;;;;;;5030934;28;20197;-64
2022/04/09 05:49:41;;;;;;;10.23;4.13;;;4.10;99.90;;;;;;5030928;28;20283;-64
2022/04/09 05:52:09;;;;;;;9.77;4.18;;;4.10;99.90;;;;;;5030185;28;20259;-65
2022/04/09 05:54:38;;;;;;;12.00;4.10;;;4.10;99.90;;;;;;5029144;28;20661;-65
2022/04/09 05:57:06;;;;;;;12.88;4.32;;;4.20;99.90;;;;;;5031083;28;20242;-64
2022/04/09 05:59:35;;;;;;;12.32;4.10;;;4.20;99.90;;;;;;5030892;28;20259;-64
2022/04/09 06:02:03;;;;;;;11.98;3.80;;;4.20;99.90;;;;;;5030041;28;20252;-64
2022/04/09 06:04:31;;;;;;;10.02;4.10;;;4.30;99.90;;;;;;5030839;28;20661;-65
2022/04/09 06:07:01;;;;;;;12.73;3.95;;;4.30;99.90;;;;;;5030658;28;20233;-64
2022/04/09 06:09:29;;;;;;;13.15;3.90;;;4.30;99.90;;;;;;5030902;28;20266;-64
2022/04/09 06:11:58;;;;;;;9.88;3.47;;;4.30;99.90;;;;;;5030297;28;20248;-64
2022/04/09 06:14:26;;;;;;;8.60;3.45;;;4.40;99.90;;;;;;5030548;28;20197;-64
2022/04/09 06:16:54;;;;;;;12.63;3.58;;;4.40;99.90;;;;;;5030497;28;20232;-64
2022/04/09 06:19:22;;;;;;;9.52;3.85;;;4.40;99.90;;;;;;5030774;28;20196;-64
2022/04/09 06:21:50;;;;;;;13.90;3.55;;;4.50;99.90;;;;;;5030448;28;20252;-64
2022/04/09 06:24:18;;;;;;;13.88;4.90;;;4.50;99.90;;;;;;5029908;28;20207;-64
2022/04/09 06:26:46;;;;;;;6.70;3.30;;;4.60;99.90;;;;;;5030537;28;20239;-65
2022/04/09 06:29:15;;;;;;;8.82;3.33;;;4.60;99.90;;;;;;5030405;28;20197;-64
2022/04/09 06:31:45;;;;;;;9.02;3.58;;;4.70;99.90;;;;;;5030063;28;20792;-64
2022/04/09 06:34:13;;;;;;;10.15;3.97;;;4.70;99.90;;;;;;5029781;28;20204;-64
2022/04/09 06:36:41;;;;;;;15.15;3.58;;;4.90;99.90;;;;;;5030456;28;20287;-64
2022/04/09 06:39:09;;;;;;;9.45;2.70;;;5.00;99.90;;;;;;5030507;28;20197;-64
2022/04/09 06:41:37;;;;;;;8.10;3.70;;;5.00;99.90;;;;;;5030375;28;20213;-64
2022/04/09 06:44:06;;;;;;;12.95;3.42;;;5.00;99.90;;;;;;5029686;28;20276;-64
2022/04/09 06:46:35;;;;;;;7.43;2.45;;;5.10;99.90;;;;;;5032973;28;20196;-65
2022/04/09 06:49:03;;;;;;;7.82;2.85;;;5.10;99.90;;;;;;5033830;28;20209;-64
2022/04/09 06:51:31;;;;;;;11.48;3.42;;;5.10;99.90;;;;;;5034130;28;20244;-63
2022/04/09 06:53:59;;;;;;;12.45;3.42;;;5.20;99.90;;;;;;5031548;28;20256;-64
2022/04/09 06:56:27;;;;;;;7.63;3.40;;;5.30;99.90;;;;;;5033689;28;20184;-64
2022/04/09 06:58:54;;;;;;;9.23;2.95;;;5.40;99.90;;;;;;5033972;28;20734;-64
2022/04/09 07:01:22;;;;;;;10.25;3.25;;;5.50;99.90;;;;;;5033531;28;20757;-64
2022/04/09 07:03:52;;;;;;;10.45;3.88;;;5.60;99.90;;;;;;5033254;28;20216;-64
2022/04/09 07:06:23;;;;;;;8.82;3.35;;;5.80;99.90;;;;;;5033399;28;20192;-64
2022/04/09 07:08:51;;;;;;;8.68;3.30;;;6.00;99.90;;;;;;5033497;28;20221;-64
2022/04/09 07:11:18;;;;;;;8.13;3.15;;;6.00;99.90;;;;;;5033355;28;20727;-64
2022/04/09 07:13:46;;;;;;;7.78;4.30;;;6.10;99.90;;;;;;5032683;28;20403;-64
2022/04/09 07:16:14;;;;;;;8.88;3.50;;;6.10;99.90;;;;;;5033203;28;20192;-64
2022/04/09 07:18:42;;;;;;;11.55;3.53;;;6.10;99.90;;;;;;5033298;28;20618;-64
2022/04/09 07:21:11;;;;;;;9.85;3.05;;;6.30;99.90;;;;;;5033220;28;20220;-64
2022/04/09 07:23:39;;;;;;;8.02;3.30;;;6.50;99.90;;;;;;5032455;28;20239;-65
2022/04/09 07:26:07;;;;;;;9.48;2.85;;;6.60;99.90;;;;;;5033225;28;20221;-64
2022/04/09 07:28:35;;;;;;;7.82;2.65;;;6.70;99.90;;;;;;5033387;28;20524;-64
2022/04/09 07:31:03;;;;;;;8.50;2.60;;;6.80;99.90;;;;;;5032654;28;20279;-64
2022/04/09 07:33:31;;;;;;;10.77;3.70;;;7.10;99.90;;;;;;5032371;28;20733;-64
2022/04/09 07:35:59;;;;;;;11.48;3.33;;;7.20;99.90;;;;;;5033010;28;20666;-64
2022/04/09 07:38:28;;;;;;;8.77;2.92;;;7.30;99.90;;;;;;5032780;28;20232;-64
2022/04/09 07:40:56;;;;;;;9.93;3.13;;;7.50;99.90;;;;;;5032678;28;20240;-64
2022/04/09 07:43:24;;;;;;;7.40;2.50;;;7.50;99.90;;;;;;5032318;28;20541;-64
2022/04/09 07:45:52;;;;;;;8.30;2.75;;;7.50;99.90;;;;;;5033100;28;20197;-64
2022/04/09 07:48:20;;;;;;;16.42;3.60;;;7.40;99.90;;;;;;5032943;28;20196;-65
2022/04/09 07:50:48;;;;;;;9.48;2.67;;;7.50;99.90;;;;;;5033025;28;20307;-64
2022/04/09 07:53:16;;;;;;;13.07;3.35;;;7.80;99.90;;;;;;5031011;28;20657;-64
2022/04/09 07:55:45;;;;;;;9.30;2.80;;;7.90;99.90;;;;;;5032562;28;20236;-64
2022/04/09 07:58:14;;;;;;;11.93;2.90;;;8.00;99.90;;;;;;5032551;28;20275;-64
2022/04/09 08:00:44;;;;;;;9.98;2.83;;;8.10;99.90;;;;;;5032500;28;20270;-64
2022/04/09 08:03:12;;;;;;;12.93;2.75;;;8.10;99.90;;;;;;5031902;28;20192;-64
2022/04/09 08:05:40;;;;;;;11.85;3.78;;;8.30;99.90;;;;;;5032569;28;20189;-64
2022/04/09 08:08:08;;;;;;;12.85;3.50;;;8.40;99.90;;;;;;5032444;28;20225;-64
2022/04/09 08:10:37;;;;;;;11.20;2.83;;;8.40;99.90;;;;;;5032189;28;20782;-64
2022/04/09 08:13:06;;;;;;;8.80;2.15;;;8.60;99.90;;;;;;5031466;28;20248;-64
2022/04/09 08:15:35;;;;;;;7.57;2.80;;;8.90;99.90;;;;;;5032115;28;20620;-65
2022/04/09 08:18:04;;;;;;;10.60;2.45;;;9.00;99.90;;;;;;5032292;28;20624;-64
2022/04/09 08:20:52;;;;;;;6.97;2.92;;;9.10;99.90;;;;;;5031977;28;20212;-65
2022/04/09 08:23:20;;;;;;;6.25;2.20;;;9.10;99.90;;;;;;5031656;28;20228;-64
2022/04/09 08:25:48;;;;;;;5.05;1.85;;;9.20;99.90;;;;;;5032359;28;20192;-65
2022/04/09 08:28:17;;;;;;;7.60;1.80;;;9.30;99.90;;;;;;5032039;28;20220;-65
2022/04/09 08:30:45;;;;;;;8.65;3.38;;;9.40;99.90;;;;;;5031524;28;20327;-65
2022/04/09 08:33:15;;;;;;;8.32;2.55;;;9.40;99.90;;;;;;5031290;28;20683;-64
2022/04/09 08:35:43;;;;;;;8.45;2.13;;;9.40;99.90;;;;;;5032109;28;20247;-65
2022/04/09 08:38:11;;;;;;;8.70;2.88;;;9.50;99.90;;;;;;5031890;28;20193;-64
2022/04/09 08:40:39;;;;;;;8.00;2.42;;;9.60;99.90;;;;;;5031585;28;20291;-66
2022/04/09 08:43:09;;;;;;;11.65;3.20;;;9.70;99.90;;;;;;5031295;28;20209;-65
2022/04/09 08:45:40;;;;;;;10.98;2.55;;;9.80;99.90;;;;;;5031860;28;20227;-64
2022/04/09 08:48:10;;;;;;;9.27;2.15;;;10.00;99.90;;;;;;5031787;28;20224;-64
2022/04/09 08:50:38;;;;;;;11.25;2.50;;;10.00;99.90;;;;;;5031382;28;20698;-65
2022/04/09 08:53:07;;;;;;;12.93;3.05;;;10.30;99.90;;;;;;5029206;28;20757;-64
2022/04/09 08:55:36;;;;;;;10.65;2.58;;;10.10;99.90;;;;;;5031296;28;20600;-64
2022/04/09 08:58:05;;;;;;;9.05;1.88;;;10.20;99.90;;;;;;5031512;28;20235;-64
2022/04/09 09:00:34;;;;;;;8.98;2.47;;;10.20;99.90;;;;;;5031814;28;20757;-64
2022/04/09 09:03:04;;;;;;;9.43;2.38;;;10.30;99.90;;;;;;5030578;28;20185;-64
2022/04/09 09:05:33;;;;;;;5.38;2.67;;;10.60;99.90;;;;;;5031652;28;20193;-64
2022/04/09 09:08:02;;;;;;;8.10;2.15;;;10.80;99.90;;;;;;5030791;28;20243;-64
2022/04/09 09:10:31;;;;;;;6.57;1.95;;;10.70;99.90;;;;;;5031314;28;20216;-64
2022/04/09 09:13:01;;;;;;;6.78;2.95;;;10.60;99.90;;;;;;5030571;28;20197;-64
2022/04/09 09:15:29;;;;;;;7.85;2.22;;;10.90;99.90;;;;;;5031296;28;20220;-64
2022/04/09 09:17:58;;;;;;;5.03;1.92;;;11.40;99.90;;;;;;5031445;28;20670;-64
2022/04/09 09:20:28;;;;;;;5.28;1.90;;;11.50;99.90;;;;;;5031246;28;20254;-64
2022/04/09 09:22:55;;;;;;;10.60;2.95;;;11.60;99.90;;;;;;5030606;28;20239;-65
2022/04/09 09:25:23;;;;;;;8.35;2.22;;;11.40;99.90;;;;;;5031009;28;20192;-64
2022/04/09 09:28:00;;;;;;;5.05;2.30;;;10.90;99.90;;;;;;5031005;28;20650;-65
2022/04/09 09:30:47;;;;;;;4.70;1.48;;;10.90;99.90;;;;;;5053619;22;20270;-61
2022/04/09 09:33:15;;;;;;;8.63;2.03;;;11.20;99.90;;;;;;4992522;28;20260;-62
2022/04/09 09:36:05;;;;;;;8.75;1.92;;;11.60;99.90;;;;;;4972356;28;20294;-63
2022/04/09 09:38:34;;;;;;;6.47;2.00;;;12.10;99.90;;;;;;4972103;28;20198;-62
2022/04/09 09:41:03;;;;;;;6.15;2.38;;;12.00;99.90;;;;;;4972075;28;20309;-62
2022/04/09 09:43:31;;;;;;;5.35;1.60;;;11.90;99.90;;;;;;4971795;28;20718;-62
2022/04/09 09:46:00;;;;;;;7.60;2.10;;;11.90;99.90;;;;;;4972320;28;20301;-62
2022/04/09 09:48:29;;;;;;;8.02;1.80;;;11.80;99.40;;;;;;4972408;28;20222;-61
2022/04/09 09:50:59;;;;;;;4.38;1.90;;;11.90;99.70;;;;;;4972295;28;20262;-61
2022/04/09 09:53:29;;;;;;;5.20;1.40;;;12.20;99.70;;;;;;4969802;28;20202;-61
2022/04/09 09:55:58;;;;;;;6.43;1.90;;;12.50;99.10;;;;;;4972240;28;20261;-61
2022/04/09 09:58:28;;;;;;;7.15;4.53;;;12.90;98.60;;;;;;4971938;28;20210;-61
2022/04/09 10:01:16;;;;;;;5.75;1.50;;;12.90;97.30;;;;;;4972227;28;20274;-61
2022/04/09 10:03:44;;;;;;;5.75;2.03;;;12.90;96.40;;;;;;4986201;28;20218;-62
2022/04/09 10:06:12;;;;;;;4.03;1.58;;;13.10;97.50;;;;;;4972259;28;20245;-62
2022/04/09 10:08:41;;;;;;;5.75;1.80;;;13.40;96.10;;;;;;4972117;28;20202;-62
2022/04/09 10:11:11;;;;;;;5.20;1.48;;;13.20;96.60;;;;;;4971674;28;20662;-62
2022/04/09 10:13:43;;;;;;;4.20;1.40;;;13.30;96.20;;;;;;4971343;28;20465;-62
2022/04/09 10:16:12;;;;;;;4.60;1.50;;;13.40;94.90;;;;;;4971901;28;20736;-62
2022/04/09 10:18:41;;;;;;;2.50;1.23;;;13.20;94.10;;;;;;4972014;28;20294;-62
2022/04/09 10:21:09;;;;;;;6.07;1.80;;;13.50;94.40;;;;;;4975364;28;20219;-62
2022/04/09 10:23:37;;;;;;;4.07;1.40;;;13.50;94.30;;;;;;4975196;28;20656;-61
2022/04/09 10:26:07;;;;;;;3.92;1.88;;;13.30;93.90;;;;;;4975268;28;20273;-61
2022/04/09 10:28:37;;;;;;;5.50;1.80;;;13.20;94.30;;;;;;4975485;28;20194;-61
2022/04/09 10:31:34;;;;;;;3.70;1.60;;;13.30;93.80;;;;;;4975208;28;20238;-61
2022/04/09 10:34:04;;;;;;;3.85;1.73;;;13.00;94.50;;;;;;4974699;28;20222;-61
2022/04/09 10:36:59;;;;;;;3.33;1.70;;;12.50;93.60;;;;;;4975134;28;20230;-62
2022/04/09 10:39:29;;;;;;;3.75;1.35;;;12.10;95.50;;;;;;4975243;28;20249;-61
2022/04/09 10:41:59;;;;;;;3.17;1.25;;;11.30;99.80;;;;;;4974728;28;20241;-60
2022/04/09 10:44:52;;;;;;;2.00;1.20;;;10.70;99.90;;;;;;4975195;28;20191;-61
2022/04/09 10:47:20;;;;;;;5.38;1.35;;;10.20;99.90;;;;;;4975295;28;20230;-61
2022/04/09 10:50:11;;;;;;;2.83;1.05;;;9.50;99.90;;;;;;4974968;28;20731;-61
2022/04/09 10:52:41;;;;;;;1.83;0.95;;;8.80;99.90;;;;;;4973265;28;20293;-61
2022/04/09 10:55:31;;;;;;;1.27;0.70;;;8.50;99.90;;;;;;4974757;28;20222;-61
2022/04/09 10:58:10;;;;;;;5.47;1.05;;;8.10;99.90;;;;;;4975101;28;20544;-62
2022/04/09 11:00:43;;;;;;;1.92;0.68;;;7.80;99.90;;;;;;4974861;28;20202;-61
2022/04/09 11:03:31;;;;;;;3.17;0.80;;;7.30;99.90;;;;;;4974110;28;20206;-61
2022/04/09 11:06:34;;;;;;;2.63;0.80;;;7.00;99.90;;;;;;4974812;28;20199;-61
2022/04/09 11:09:04;;;;;;;3.30;1.13;;;6.80;99.90;;;;;;4974699;28;20194;-61
2022/04/09 11:11:33;;;;;;;3.05;1.10;;;6.60;99.90;;;;;;4974476;28;20215;-63
2022/04/09 11:14:03;;;;;;;2.05;1.00;;;6.60;99.90;;;;;;4974130;28;20591;-61
2022/04/09 11:16:34;;;;;;;1.77;0.95;;;6.40;99.90;;;;;;4974537;28;20226;-61
2022/04/09 11:19:02;;;;;;;1.92;0.88;;;6.30;99.90;;;;;;4974688;28;20202;-60
2022/04/09 11:21:31;;;;;;;1.40;1.13;;;6.20;99.90;;;;;;4974408;28;20586;-61
2022/04/09 11:24:07;;;;;;;1.85;0.77;;;6.00;99.90;;;;;;4973510;28;20616;-61
2022/04/09 11:26:35;;;;;;;2.60;1.00;;;5.80;99.90;;;;;;4974469;28;20232;-61
2022/04/09 11:29:11;;;;;;;0.90;0.77;;;5.70;99.90;;;;;;4974403;28;20258;-61
2022/04/09 11:31:46;;;;;;;2.35;1.10;;;5.80;99.90;;;;;;4973535;28;20774;-60
2022/04/09 11:34:14;;;;;;;3.13;1.15;;;5.80;99.90;;;;;;4973522;28;20202;-60
2022/04/09 11:36:42;;;;;;;4.40;1.35;;;5.80;99.90;;;;;;4974129;28;20223;-60
2022/04/09 11:39:10;;;;;;;2.13;1.00;;;6.00;99.90;;;;;;4974109;28;20644;-60
2022/04/09 11:41:37;;;;;;;5.13;1.10;;;6.10;99.90;;;;;;4974110;28;20297;-60
2022/04/09 11:44:06;;;;;;;2.08;0.90;;;6.20;99.90;;;;;;4973309;28;20253;-60
2022/04/09 11:46:44;;;;;;;2.85;1.55;;;6.30;99.90;;;;;;4974149;28;20237;-61
2022/04/09 11:49:14;;;;;;;2.78;1.25;;;6.60;99.90;;;;;;4974124;28;20255;-61
2022/04/09 11:51:41;;;;;;;4.38;1.52;;;6.70;99.90;;;;;;4973857;28;20257;-61
2022/04/09 11:54:18;;;;;;;4.03;1.52;;;6.70;99.90;;;;;;4971606;28;20550;-61
2022/04/09 11:56:46;;;;;;;2.58;1.30;;;6.80;99.90;;;;;;4973662;28;20218;-61
2022/04/09 11:59:15;;;;;;;3.85;1.60;;;7.30;99.90;;;;;;4973790;28;20256;-61
2022/04/09 12:01:46;;;;;;;2.33;1.08;;;8.00;99.90;;;;;;4973633;28;20211;-61
2022/04/09 12:04:15;;;;;;;3.63;1.10;;;8.50;99.90;;;;;;4973071;28;20207;-61
2022/04/09 12:06:44;;;;;;;7.05;1.75;;;9.10;99.90;;;;;;4973649;28;20669;-61
2022/04/09 12:09:13;;;;;;;3.45;1.30;;;9.50;99.90;;;;;;4973329;28;20233;-61
2022/04/09 12:11:42;;;;;;;4.03;1.27;;;9.70;99.90;;;;;;4973373;28;20218;-61
2022/04/09 12:14:13;;;;;;;3.15;1.20;;;10.00;99.90;;;;;;4972985;28;20669;-61
2022/04/09 12:16:41;;;;;;;2.60;1.15;;;10.40;99.90;;;;;;4973741;28;20704;-61
2022/04/09 12:19:10;;;;;;;5.07;1.15;;;11.00;99.90;;;;;;4973162;28;20205;-61
2022/04/09 12:21:38;;;;;;;5.50;1.50;;;11.80;99.90;;;;;;4973156;28;20211;-61
2022/04/09 12:24:08;;;;;;;2.25;1.15;;;12.00;99.90;;;;;;4972807;28;20199;-61
2022/04/09 12:26:38;;;;;;;2.67;1.20;;;12.40;99.90;;;;;;4973276;28;20202;-61
2022/04/09 12:29:12;;;;;;;4.18;1.20;;;12.80;99.90;;;;;;4973206;28;20246;-61
2022/04/09 12:31:40;;;;;;;3.05;1.23;;;12.80;99.40;;;;;;4972963;28;20234;-61
2022/04/09 12:34:11;;;;;;;3.88;1.20;;;13.30;99.90;;;;;;4972509;28;20198;-62
2022/04/09 12:36:58;;;;;;;2.65;0.88;;;13.60;98.90;;;;;;4973230;28;20276;-62
2022/04/09 12:39:27;;;;;;;3.85;1.13;;;13.60;97.30;;;;;;4972864;28;20241;-62
2022/04/09 12:41:56;;;;;;;5.20;1.20;;;13.70;96.60;;;;;;4972720;28;20221;-61
2022/04/09 12:44:28;;;;;;;5.20;1.38;;;13.60;95.70;;;;;;4972175;28;20237;-62
2022/04/09 12:46:56;;;;;;;5.05;1.20;;;13.50;96.50;;;;;;4972657;28;20290;-62
2022/04/09 12:49:29;;;;;;;4.03;1.35;;;13.90;96.10;;;;;;4972838;28;20240;-62
2022/04/09 12:51:58;;;;;;;4.22;1.25;;;14.30;95.60;;;;;;4972395;28;20206;-61
2022/04/09 12:54:27;;;;;;;4.53;1.20;;;14.60;94.50;;;;;;4971679;28;20206;-62
2022/04/09 12:56:55;;;;;;;4.90;1.55;;;14.80;94.60;;;;;;4972635;28;20696;-62
2022/04/09 12:59:24;;;;;;;2.08;1.10;;;15.40;95.10;;;;;;4972741;28;20567;-62